Pagina principale
METAR-TAF:

METAR-TAF

Aeroporti :

Aeroporto di Graz

Graz, Austria

latitudine: 47-00N, longitudine: 015-26E, altezza: 340 m

Osservazione

Il bollettino è stato emesso 24 minuti fa, alle 11:50 UTC
Vento 1 kt da direzioni variabili
Temperature 0°C
Umidità 80%
Pressione 1020 hPa
Visibilità 10 km o più
Poco nuvoloso ad un'altezza di 1200 ft
Nuvoloso ad un'altezza di 2600 ft

METAR: LOWG 211150Z VRB01KT 9999 FEW012 BKN026 M00/M03 Q1020 R17/15//95 NOSIG

Ora: 13:14 (12:14 UTC)

Previsione

Il bollettino è stato emesso 59 minuti fa, alle 11:15 UTC
Previsione valida dal 21 alle 12 UTC al 22 alle 12 UTC
Vento 2 kt da direzioni variabili
Visibilità 10 km o più
Nuvoloso ad un'altezza di 2500 ft
Evoluzione graduale
dal 22 alle 10 UTC al 22 alle 12 UTC
Vento 5 kt da nord-est
Poco nuvoloso ad un'altezza di 3000 ft
Nuvoloso ad un'altezza di 30000 ft

TAF: LOWG 211115Z 2112/2212 VRB02KT 9999 BKN025 TX01/2212Z TNM04/2204Z BECMG 2210/2212 05005KT FEW030 BKN300

Osservazioni e previsioni meteorologiche di più di 4000 aeroporti (messaggi METAR e TAF).

Le stazioni disponibili sono rappresentate dai dischi gialli e rossi sulla carta.

Puntare il mouse per vedere il nome della stazione.

Clicca sopra per visualizzare le osservazioni e previsioni meteorologiche.

Per cambiare la mappa : fare clic sui pulsanti verdi con una croce nera per ingrandire, il pulsante verde con un trattino per diminuire, o sulla freccia verde per le mappe adiacenti.


METAR-TAF: